createdAt,value
2019-05-14T00:02:09.111Z,10.11
2019-05-14T00:04:42.017Z,10.08
2019-05-14T00:07:11.909Z,10.14
2019-05-14T00:09:43.206Z,10.16
2019-05-14T00:12:13.790Z,10.21
2019-05-14T00:14:44.385Z,10.03
2019-05-14T00:17:14.855Z,9.96
2019-05-14T00:23:34.659Z,10.02
2019-05-14T00:26:05.270Z,9.97
2019-05-14T00:28:35.710Z,9.94
2019-05-14T00:31:06.787Z,9.97
2019-05-14T00:33:37.580Z,9.87
2019-05-14T00:36:08.419Z,9.88
2019-05-14T00:38:41.787Z,9.89
2019-05-14T00:41:11.835Z,9.81
2019-05-14T00:43:42.162Z,9.86
2019-05-14T00:46:12.945Z,9.81
2019-05-14T00:48:43.824Z,9.76
2019-05-14T00:51:14.462Z,9.82
2019-05-14T00:53:45.177Z,9.83
2019-05-14T00:56:15.919Z,9.71
2019-05-14T00:58:46.755Z,9.70
2019-05-14T01:01:17.332Z,9.61
2019-05-14T01:03:48.123Z,9.57
2019-05-14T01:06:18.850Z,9.68
2019-05-14T01:08:51.686Z,9.77
2019-05-14T01:11:22.149Z,9.72
2019-05-14T01:13:52.881Z,9.72
2019-05-14T01:16:23.694Z,9.67
2019-05-14T01:18:55.380Z,9.66
2019-05-14T01:21:26.373Z,9.62
2019-05-14T01:23:56.834Z,9.55
2019-05-14T01:26:27.789Z,9.56
2019-05-14T01:28:58.640Z,9.56
2019-05-14T01:31:31.478Z,9.55
2019-05-14T01:34:02.346Z,9.45
2019-05-14T01:36:33.304Z,9.48
2019-05-14T01:39:05.758Z,9.50
2019-05-14T01:41:36.088Z,9.46
2019-05-14T01:44:07.941Z,9.30
2019-05-14T01:46:38.682Z,9.26
2019-05-14T01:49:09.216Z,9.31
2019-05-14T01:51:42.118Z,9.43
2019-05-14T01:54:12.289Z,9.45
2019-05-14T01:56:43.211Z,9.31
2019-05-14T01:59:14.030Z,9.31
2019-05-14T02:01:44.499Z,9.31
2019-05-14T02:04:15.225Z,9.29
2019-05-14T02:06:46.087Z,9.38
2019-05-14T02:09:16.582Z,9.26
2019-05-14T02:11:47.754Z,9.20
2019-05-14T02:14:18.056Z,9.22
2019-05-14T02:16:51.064Z,9.16
2019-05-14T02:19:22.160Z,9.09
2019-05-14T02:21:53.055Z,9.16
2019-05-14T02:24:23.773Z,9.14
2019-05-14T02:26:54.595Z,9.17
2019-05-14T02:29:25.346Z,9.15
2019-05-14T02:31:58.849Z,9.11
2019-05-14T02:34:29.973Z,9.16
2019-05-14T02:37:01.695Z,9.20
2019-05-14T02:39:32.270Z,9.18
2019-05-14T02:42:03.155Z,9.16
2019-05-14T02:44:33.625Z,9.13
2019-05-14T02:47:04.475Z,9.14
2019-05-14T02:49:34.810Z,9.19
2019-05-14T02:52:05.527Z,9.17
2019-05-14T02:54:36.279Z,9.16
2019-05-14T02:57:10.256Z,9.09
2019-05-14T02:59:39.883Z,9.12
2019-05-14T03:02:10.724Z,9.11
2019-05-14T03:04:40.999Z,9.06
2019-05-14T03:07:13.063Z,9.07
2019-05-14T03:09:43.949Z,9.11
2019-05-14T03:12:15.601Z,9.03
2019-05-14T03:14:49.479Z,8.99
2019-05-14T03:17:19.822Z,8.88
2019-05-14T03:19:51.856Z,8.91
2019-05-14T03:22:28.983Z,8.96
2019-05-14T03:24:55.122Z,8.90
2019-05-14T03:27:25.908Z,8.88
2019-05-14T03:29:58.605Z,8.82
2019-05-14T03:32:33.006Z,8.86
2019-05-14T03:35:03.883Z,8.91
2019-05-14T03:37:33.938Z,8.88
2019-05-14T03:40:09.311Z,8.87
2019-05-14T03:42:40.185Z,8.86
2019-05-14T03:45:10.588Z,8.88
2019-05-14T03:47:41.852Z,8.87
2019-05-14T03:50:12.521Z,8.76
2019-05-14T03:52:43.280Z,8.67
2019-05-14T03:55:15.076Z,8.71
2019-05-14T03:57:45.981Z,8.68
2019-05-14T04:00:18.813Z,8.64
2019-05-14T04:02:49.424Z,8.70
2019-05-14T04:05:22.695Z,8.78
2019-05-14T04:07:52.633Z,8.80
2019-05-14T04:10:25.180Z,8.73
2019-05-14T04:12:55.917Z,8.75
2019-05-14T04:15:29.661Z,8.82
2019-05-14T04:17:59.768Z,8.80
2019-05-14T04:20:30.233Z,8.91
2019-05-14T04:23:00.864Z,8.90
2019-05-14T04:25:31.640Z,8.68
2019-05-14T04:28:02.383Z,8.69
2019-05-14T04:30:33.140Z,8.61
2019-05-14T04:33:04.368Z,8.66
2019-05-14T04:35:39.876Z,8.59
2019-05-14T04:38:09.603Z,8.50
2019-05-14T04:40:40.083Z,8.47
2019-05-14T04:43:10.982Z,8.55
2019-05-14T04:45:41.824Z,8.53
2019-05-14T04:48:27.943Z,8.53
2019-05-14T04:50:49.529Z,8.50
2019-05-14T04:53:19.699Z,8.52
2019-05-14T04:55:50.289Z,8.46
2019-05-14T04:58:21.851Z,8.55
2019-05-14T05:00:52.743Z,8.67
2019-05-14T05:03:23.658Z,8.78
2019-05-14T05:05:54.339Z,8.70
2019-05-14T05:08:30.029Z,8.62
2019-05-14T05:11:00.864Z,8.70
2019-05-14T05:13:31.874Z,8.87
2019-05-14T05:16:02.738Z,8.93
2019-05-14T05:18:34.571Z,8.84
2019-05-14T05:21:05.084Z,8.78
2019-05-14T05:23:38.176Z,8.84
2019-05-14T05:26:09.321Z,8.70
2019-05-14T05:28:41.854Z,8.67
2019-05-14T05:31:12.618Z,8.80
2019-05-14T05:33:45.224Z,8.64
2019-05-14T05:36:15.685Z,8.75
2019-05-14T05:38:48.716Z,8.76
2019-05-14T05:41:19.138Z,8.92
2019-05-14T05:43:50.343Z,9.03
2019-05-14T05:46:20.959Z,8.97
2019-05-14T05:48:51.707Z,8.85
2019-05-14T05:51:22.166Z,8.83
2019-05-14T05:53:53.131Z,9.01
2019-05-14T05:56:23.757Z,9.09
2019-05-14T05:58:54.700Z,9.13
2019-05-14T06:01:39.489Z,9.01
2019-05-14T06:03:58.434Z,9.00
2019-05-14T06:06:29.197Z,9.13
2019-05-14T06:08:59.624Z,9.07
2019-05-14T06:11:30.050Z,8.97
2019-05-14T06:14:00.332Z,9.01
2019-05-14T06:16:31.211Z,9.11
2019-05-14T06:19:02.049Z,9.17
2019-05-14T06:21:32.617Z,9.18
2019-05-14T06:24:03.370Z,9.07
2019-05-14T06:26:35.489Z,9.00
2019-05-14T06:29:08.206Z,8.97
2019-05-14T06:31:38.962Z,8.97
2019-05-14T06:34:09.790Z,9.06
2019-05-14T06:36:40.622Z,9.08
2019-05-14T06:39:11.357Z,9.15
2019-05-14T06:41:43.118Z,9.42
2019-05-14T06:44:14.705Z,9.73
2019-05-14T06:46:45.192Z,10.05
2019-05-14T06:49:18.202Z,9.85
2019-05-14T06:51:48.939Z,10.02
2019-05-14T06:54:19.818Z,9.86
2019-05-14T06:56:50.277Z,9.51
2019-05-14T06:59:21.214Z,9.33
2019-05-14T07:01:52.073Z,9.27
2019-05-14T07:04:22.759Z,9.22
2019-05-14T07:06:53.619Z,9.40
2019-05-14T07:09:26.002Z,9.53
2019-05-14T07:11:58.476Z,9.46
2019-05-14T07:14:29.362Z,9.38
2019-05-14T07:16:59.955Z,9.30
2019-05-14T07:19:30.511Z,9.38
2019-05-14T07:22:01.842Z,9.59
2019-05-14T07:24:32.688Z,9.51
2019-05-14T07:27:03.713Z,9.43
2019-05-14T07:29:34.514Z,9.43
2019-05-14T07:32:05.329Z,9.45
2019-05-14T07:34:38.638Z,9.60
2019-05-14T07:37:09.261Z,9.72
2019-05-14T07:39:41.601Z,9.93
2019-05-14T07:42:14.134Z,9.92
2019-05-14T07:44:44.759Z,9.87
2019-05-14T07:47:15.743Z,9.74
2019-05-14T07:49:49.111Z,9.85
2019-05-14T07:52:19.965Z,9.85
2019-05-14T07:54:50.607Z,9.85
2019-05-14T07:57:22.158Z,9.90
2019-05-14T07:59:52.972Z,9.88
2019-05-14T08:02:23.918Z,9.94
2019-05-14T08:04:57.931Z,9.80
2019-05-14T08:07:28.162Z,9.69
2019-05-14T08:09:59.517Z,9.77
2019-05-14T08:12:30.103Z,9.91
2019-05-14T08:15:14.277Z,9.92
2019-05-14T08:17:33.768Z,9.76
2019-05-14T08:20:08.988Z,9.79
2019-05-14T08:22:40.574Z,9.77
2019-05-14T08:25:11.401Z,9.79
2019-05-14T08:27:42.081Z,9.66
2019-05-14T08:30:12.857Z,9.56
2019-05-14T08:32:43.344Z,9.73
2019-05-14T08:35:15.304Z,9.89
2019-05-14T08:37:46.244Z,10.09
2019-05-14T08:40:20.483Z,10.08
2019-05-14T08:42:49.296Z,10.16
2019-05-14T08:45:19.775Z,10.23
2019-05-14T08:47:50.142Z,10.23
2019-05-14T08:50:21.895Z,10.37
2019-05-14T08:52:55.055Z,10.16
2019-05-14T08:55:25.723Z,10.15
2019-05-14T08:57:58.905Z,10.21
2019-05-14T09:00:28.945Z,10.23
2019-05-14T09:03:02.993Z,10.39
2019-05-14T09:05:32.109Z,10.20
2019-05-14T09:08:04.109Z,10.10
2019-05-14T09:10:34.585Z,10.17
2019-05-14T09:13:05.219Z,10.21
2019-05-14T09:15:38.456Z,10.24
2019-05-14T09:18:11.795Z,9.99
2019-05-14T09:20:41.867Z,9.98
2019-05-14T09:23:12.705Z,9.92
2019-05-14T09:25:47.313Z,9.87
2019-05-14T09:28:18.605Z,9.93
2019-05-14T09:30:50.179Z,9.82
2019-05-14T09:33:24.285Z,9.75
2019-05-14T09:36:09.632Z,9.71
2019-05-14T09:38:29.108Z,9.94
2019-05-14T09:41:10.619Z,10.00
2019-05-14T09:43:35.943Z,10.03
2019-05-14T09:46:08.818Z,9.97
2019-05-14T09:48:39.184Z,9.93
2019-05-14T09:51:11.045Z,9.87
2019-05-14T09:53:43.808Z,9.92
2019-05-14T09:56:14.487Z,9.84
2019-05-14T09:58:49.230Z,9.93
2019-05-14T10:01:19.401Z,9.93
2019-05-14T10:03:50.448Z,9.88
2019-05-14T10:06:24.579Z,9.86
2019-05-14T10:08:56.222Z,9.99
2019-05-14T10:11:28.894Z,10.00
2019-05-14T10:14:00.426Z,9.95
2019-05-14T10:16:33.027Z,9.93
2019-05-14T10:19:04.184Z,9.99
2019-05-14T10:21:34.721Z,9.91
2019-05-14T10:24:05.569Z,9.89
2019-05-14T10:26:39.323Z,9.87
2019-05-14T10:29:10.147Z,9.97
2019-05-14T10:31:41.392Z,10.22
2019-05-14T10:34:15.433Z,10.09
2019-05-14T10:36:47.193Z,10.11
2019-05-14T10:39:19.224Z,10.22
2019-05-14T10:41:50.379Z,10.33
2019-05-14T10:44:21.233Z,10.35
2019-05-14T10:46:51.559Z,10.35
2019-05-14T10:49:23.769Z,10.33
2019-05-14T10:51:54.726Z,10.44
2019-05-14T10:54:28.997Z,10.31
2019-05-14T10:56:59.230Z,10.40
2019-05-14T10:59:30.101Z,10.48
2019-05-14T11:02:00.833Z,10.58
2019-05-14T11:04:34.340Z,10.34
2019-05-14T11:07:05.253Z,10.33
2019-05-14T11:09:37.869Z,10.54
2019-05-14T11:12:08.991Z,10.64
2019-05-14T11:14:39.867Z,10.79
2019-05-14T11:17:12.006Z,10.89
2019-05-14T11:19:42.523Z,10.99
2019-05-14T11:22:13.093Z,11.05
2019-05-14T11:24:43.638Z,10.94
2019-05-14T11:27:15.309Z,11.03
2019-05-14T11:29:46.145Z,11.06
2019-05-14T11:32:18.562Z,10.69
2019-05-14T11:34:48.996Z,10.90
2019-05-14T11:37:24.876Z,11.11
2019-05-14T11:39:52.834Z,11.12
2019-05-14T11:42:23.570Z,11.44
2019-05-14T11:44:55.116Z,11.29
2019-05-14T11:47:25.515Z,11.05
2019-05-14T11:49:59.130Z,11.08
2019-05-14T11:52:31.586Z,11.16
2019-05-14T11:55:04.103Z,10.89
2019-05-14T11:57:34.741Z,10.68
2019-05-14T12:00:08.513Z,10.73
2019-05-14T12:02:39.330Z,10.87
2019-05-14T12:05:10.525Z,10.73
2019-05-14T12:07:42.786Z,10.80
2019-05-14T12:10:13.223Z,10.89
2019-05-14T12:12:44.855Z,10.84
2019-05-14T12:15:18.544Z,10.89
2019-05-14T12:17:50.986Z,10.94
2019-05-14T12:20:20.692Z,10.67
2019-05-14T12:22:53.308Z,10.83
2019-05-14T12:25:24.986Z,11.01
2019-05-14T12:27:58.731Z,10.89
2019-05-14T12:30:28.822Z,10.78
2019-05-14T12:33:00.533Z,10.75
2019-05-14T12:35:31.816Z,10.87
2019-05-14T12:38:03.171Z,11.02
2019-05-14T12:40:33.904Z,10.96
2019-05-14T12:43:04.634Z,10.97
2019-05-14T12:45:35.063Z,10.92
2019-05-14T12:48:06.022Z,10.97
2019-05-14T12:50:39.226Z,11.01
2019-05-14T12:53:11.755Z,10.72
2019-05-14T12:55:42.442Z,10.70
2019-05-14T12:58:14.871Z,10.85
2019-05-14T13:00:48.474Z,10.87
2019-05-14T13:03:21.371Z,10.75
2019-05-14T13:05:55.467Z,10.85
2019-05-14T13:08:27.227Z,10.95
2019-05-14T13:10:59.675Z,10.88
2019-05-14T13:13:32.029Z,10.80
2019-05-14T13:16:04.488Z,10.68
2019-05-14T13:18:40.312Z,10.69
2019-05-14T13:21:15.944Z,10.86
2019-05-14T13:23:50.243Z,11.06
2019-05-14T13:26:23.408Z,11.07
2019-05-14T13:28:53.984Z,11.03
2019-05-14T13:31:24.926Z,10.97
2019-05-14T13:33:59.204Z,11.00
2019-05-14T13:36:28.924Z,10.85
2019-05-14T13:38:59.823Z,11.02
2019-05-14T13:41:33.446Z,11.08
2019-05-14T13:44:17.309Z,10.77
2019-05-14T13:46:37.355Z,10.86
2019-05-14T13:49:08.350Z,10.96
2019-05-14T13:51:40.877Z,10.89
2019-05-14T13:54:13.933Z,10.83
2019-05-14T13:56:45.581Z,10.79
2019-05-14T13:59:18.767Z,10.96
2019-05-14T14:01:50.366Z,10.96
2019-05-14T14:04:21.001Z,11.03
2019-05-14T14:06:51.738Z,11.22
2019-05-14T14:09:22.200Z,11.12
2019-05-14T14:11:52.949Z,11.11
2019-05-14T14:14:23.736Z,11.15
2019-05-14T14:17:04.954Z,11.18
2019-05-14T14:19:49.817Z,11.23
2019-05-14T14:22:21.028Z,11.21
2019-05-14T14:24:53.800Z,11.19
2019-05-14T14:27:33.200Z,11.13
2019-05-14T14:30:12.074Z,11.03
2019-05-14T14:32:49.269Z,11.04
2019-05-14T14:35:30.224Z,11.11
2019-05-14T14:38:00.009Z,11.24
2019-05-14T14:40:32.094Z,11.23
2019-05-14T14:43:05.794Z,11.05
2019-05-14T14:45:44.649Z,11.02
2019-05-14T14:48:19.871Z,11.11
2019-05-14T14:50:58.853Z,11.15
2019-05-14T14:53:47.393Z,11.14
2019-05-14T14:56:13.113Z,11.11
2019-05-14T14:58:44.566Z,11.13
2019-05-14T15:01:19.035Z,11.14
2019-05-14T15:03:50.398Z,11.20
2019-05-14T15:06:24.164Z,11.12
2019-05-14T15:08:55.293Z,10.98
2019-05-14T15:11:29.594Z,11.01
2019-05-14T15:14:01.982Z,10.99
2019-05-14T15:16:32.307Z,10.94
2019-05-14T15:19:03.273Z,10.94
2019-05-14T15:21:40.406Z,10.90
2019-05-14T15:24:19.278Z,10.93
2019-05-14T15:26:47.794Z,10.91
2019-05-14T15:29:18.714Z,10.86
2019-05-14T15:31:50.615Z,10.82
2019-05-14T15:34:23.091Z,10.86
2019-05-14T15:36:53.726Z,10.80
2019-05-14T15:39:24.423Z,10.82
2019-05-14T15:41:55.088Z,10.86
2019-05-14T15:44:25.920Z,10.88
2019-05-14T15:46:58.713Z,10.83
2019-05-14T15:49:30.250Z,10.77
2019-05-14T15:52:01.194Z,10.77
2019-05-14T15:54:42.112Z,10.79
2019-05-14T15:57:04.103Z,10.72
2019-05-14T15:59:38.994Z,10.71
2019-05-14T16:02:09.343Z,10.66
2019-05-14T16:04:39.234Z,10.68
2019-05-14T16:07:09.694Z,10.71
2019-05-14T16:09:42.042Z,10.67
2019-05-14T16:12:14.477Z,10.65
2019-05-14T16:14:45.274Z,10.65
2019-05-14T16:17:23.658Z,10.73
2019-05-14T16:19:48.957Z,10.71
2019-05-14T16:22:20.856Z,10.70
2019-05-14T16:24:57.016Z,10.68
2019-05-14T16:27:29.780Z,10.69
2019-05-14T16:30:00.634Z,10.57
2019-05-14T16:32:32.286Z,10.60
2019-05-14T16:35:03.125Z,10.65
2019-05-14T16:37:39.242Z,10.73
2019-05-14T16:40:12.108Z,10.71
2019-05-14T16:42:49.469Z,10.79
2019-05-14T16:45:20.906Z,10.86
2019-05-14T16:47:51.537Z,10.83
2019-05-14T16:50:36.762Z,10.85
2019-05-14T16:53:11.369Z,10.90
2019-05-14T16:55:41.064Z,10.96
2019-05-14T16:58:15.075Z,11.03
2019-05-14T17:00:46.018Z,11.01
2019-05-14T17:03:20.725Z,10.93
2019-05-14T17:05:53.193Z,10.88
2019-05-14T17:08:23.928Z,10.84
2019-05-14T17:10:54.775Z,10.87
2019-05-14T17:13:28.568Z,10.86
2019-05-14T17:16:00.101Z,10.90
2019-05-14T17:18:31.574Z,10.90
2019-05-14T17:21:02.101Z,10.94
2019-05-14T17:23:39.048Z,10.94
2019-05-14T17:26:09.412Z,10.88
2019-05-14T17:28:40.657Z,10.80
2019-05-14T17:31:15.707Z,10.79
2019-05-14T17:33:49.168Z,10.81
2019-05-14T17:36:18.985Z,10.75
2019-05-14T17:38:49.639Z,10.74
2019-05-14T17:41:21.426Z,10.72
2019-05-14T17:43:52.190Z,10.63
2019-05-14T17:46:23.313Z,10.62
2019-05-14T17:48:55.721Z,10.62
2019-05-14T17:51:28.405Z,10.66
2019-05-14T17:54:02.986Z,10.73
2019-05-14T17:56:39.037Z,10.71
2019-05-14T17:59:10.151Z,10.71
2019-05-14T18:01:40.677Z,10.73
2019-05-14T18:04:12.458Z,10.76
2019-05-14T18:06:43.143Z,10.80
2019-05-14T18:09:13.792Z,10.80
2019-05-14T18:11:50.570Z,10.79
2019-05-14T18:14:23.770Z,10.73
2019-05-14T18:16:54.080Z,10.71
2019-05-14T18:19:24.591Z,10.76
2019-05-14T18:21:59.224Z,10.71
2019-05-14T18:24:30.378Z,10.65
2019-05-14T18:27:02.852Z,10.63
2019-05-14T18:29:33.717Z,10.64
2019-05-14T18:32:04.692Z,10.68
2019-05-14T18:34:35.472Z,10.66
2019-05-14T18:37:12.997Z,10.71
2019-05-14T18:39:39.416Z,10.72
2019-05-14T18:42:10.619Z,10.70
2019-05-14T18:44:42.889Z,10.68
2019-05-14T18:47:16.383Z,10.67
2019-05-14T18:49:45.463Z,10.66
2019-05-14T18:52:18.497Z,10.69
2019-05-14T18:54:48.464Z,10.72
2019-05-14T18:57:20.461Z,10.78
2019-05-14T18:59:50.926Z,10.76
2019-05-14T19:02:24.235Z,10.81
2019-05-14T19:04:57.795Z,10.85
2019-05-14T19:07:30.158Z,10.89
2019-05-14T19:10:01.982Z,10.77
2019-05-14T19:12:34.899Z,10.72
2019-05-14T19:15:08.720Z,10.69
2019-05-14T19:17:41.386Z,10.71
2019-05-14T19:20:11.570Z,10.66
2019-05-14T19:22:43.751Z,10.63
2019-05-14T19:25:18.630Z,10.62
2019-05-14T19:27:54.830Z,10.59
2019-05-14T19:30:28.660Z,10.59
2019-05-14T19:33:00.429Z,10.56
2019-05-14T19:35:31.119Z,10.52
2019-05-14T19:38:02.410Z,10.51
2019-05-14T19:40:41.344Z,10.53
2019-05-14T19:43:20.159Z,10.55
2019-05-14T19:45:52.629Z,10.55
2019-05-14T19:48:23.370Z,10.53
2019-05-14T19:50:55.809Z,10.56
2019-05-14T19:53:29.164Z,10.62
2019-05-14T19:55:59.649Z,10.65
2019-05-14T19:58:31.523Z,10.68
2019-05-14T20:01:02.340Z,10.70
2019-05-14T20:03:37.165Z,10.78
2019-05-14T20:06:09.167Z,10.83
2019-05-14T20:08:41.176Z,10.91
2019-05-14T20:11:11.748Z,10.94
2019-05-14T20:13:42.271Z,10.90
2019-05-14T20:16:15.364Z,10.90
2019-05-14T20:18:45.779Z,10.92
2019-05-14T20:21:17.138Z,10.96
2019-05-14T20:23:48.133Z,10.93
2019-05-14T20:26:20.110Z,10.99
2019-05-14T20:28:50.876Z,10.99
2019-05-14T20:31:23.035Z,10.83
2019-05-14T20:33:53.840Z,10.78
2019-05-14T20:36:24.670Z,10.72
2019-05-14T20:38:58.921Z,10.71
2019-05-14T20:41:32.691Z,10.63
2019-05-14T20:44:05.027Z,10.60
2019-05-14T20:46:38.033Z,10.61
2019-05-14T20:49:08.828Z,10.64
2019-05-14T20:51:40.435Z,10.59
2019-05-14T20:54:11.122Z,10.57
2019-05-14T20:56:41.741Z,10.59
2019-05-14T20:59:12.451Z,10.57
2019-05-14T21:01:45.977Z,10.59
2019-05-14T21:04:18.699Z,10.57
2019-05-14T21:06:48.835Z,10.57
2019-05-14T21:09:19.364Z,10.58
2019-05-14T21:11:50.853Z,10.60
2019-05-14T21:14:21.443Z,10.62
2019-05-14T21:16:52.075Z,10.64
2019-05-14T21:19:23.940Z,10.60
2019-05-14T21:21:54.359Z,10.63
2019-05-14T21:24:25.241Z,10.61
2019-05-14T21:26:58.241Z,10.61
2019-05-14T21:29:30.452Z,10.64
2019-05-14T21:32:01.888Z,10.65
2019-05-14T21:34:35.360Z,10.67
2019-05-14T21:37:05.869Z,10.66
2019-05-14T21:39:38.268Z,10.64
2019-05-14T21:42:10.855Z,10.63
2019-05-14T21:44:43.649Z,10.61
2019-05-14T21:47:14.397Z,10.63
2019-05-14T21:49:45.786Z,10.60
2019-05-14T21:52:18.046Z,10.60
2019-05-14T21:54:50.530Z,10.60
2019-05-14T21:57:22.186Z,10.60
2019-05-14T21:59:52.719Z,10.67
2019-05-14T22:02:27.494Z,10.65
2019-05-14T22:04:55.672Z,10.66
2019-05-14T22:07:26.761Z,10.65
2019-05-14T22:09:58.326Z,10.68
2019-05-14T22:12:28.802Z,10.67
2019-05-14T22:14:59.574Z,10.67
2019-05-14T22:17:31.191Z,10.78
2019-05-14T22:20:03.044Z,10.79
2019-05-14T22:22:33.263Z,10.83
2019-05-14T22:25:05.540Z,10.81
2019-05-14T22:27:36.063Z,10.81
2019-05-14T22:30:09.551Z,10.78
2019-05-14T22:32:41.219Z,10.73
2019-05-14T22:35:11.759Z,10.73
2019-05-14T22:37:44.182Z,10.73
2019-05-14T22:40:14.895Z,10.77
2019-05-14T22:42:45.332Z,10.77
2019-05-14T22:45:18.468Z,10.82
2019-05-14T22:47:51.874Z,10.79
2019-05-14T22:50:23.770Z,10.81
2019-05-14T22:52:54.502Z,10.83
2019-05-14T22:55:30.861Z,10.83
2019-05-14T22:57:59.187Z,10.86
2019-05-14T23:00:31.065Z,10.88
2019-05-14T23:03:01.420Z,10.92
2019-05-14T23:05:32.168Z,10.91
2019-05-14T23:08:02.502Z,10.93
2019-05-14T23:10:32.870Z,10.95
2019-05-14T23:13:03.503Z,10.97
2019-05-14T23:15:34.136Z,10.96
2019-05-14T23:18:04.757Z,10.98
2019-05-14T23:20:35.441Z,10.95
2019-05-14T23:23:06.008Z,10.98
2019-05-14T23:25:38.723Z,10.95
2019-05-14T23:28:08.702Z,10.98
2019-05-14T23:30:39.152Z,10.97
2019-05-14T23:33:09.880Z,10.97
2019-05-14T23:35:40.536Z,11.01
2019-05-14T23:38:11.292Z,11.01
2019-05-14T23:40:41.720Z,11.02
2019-05-14T23:43:12.155Z,11.02
2019-05-14T23:45:42.778Z,11.11
2019-05-14T23:48:15.203Z,11.08
2019-05-14T23:50:45.787Z,11.08
2019-05-14T23:53:18.331Z,11.16
2019-05-14T23:55:50.180Z,11.11
2019-05-14T23:58:20.948Z,11.10
